Time;durP1;ratioP1;P1;durP2;ratioP2;P2;SDS_P1;SDS_P2;PMS_P1;PMS_P2;Temp;Humidity;BMP_temperature;BMP_pressure;BME280_temperature;BME280_humidity;BME280_pressure;Samples;Min_cycle;Max_cycle;Signal;HPM_P1;HPM_P2
2022/01/03 00:01:56;;;;;;;48.50;14.15;;;;;;;5.68;85.84;101905.38;4963624;28;20086;-83
2022/01/03 00:04:23;;;;;;;27.02;13.15;;;;;;;5.98;85.71;101958.41;4963595;28;20058;-83
2022/01/03 00:06:50;;;;;;;33.17;13.88;;;;;;;5.74;85.68;101920.03;4948997;28;20047;-84
2022/01/03 00:09:17;;;;;;;55.20;15.43;;;;;;;5.57;85.33;101897.09;4947608;29;20091;-82
2022/01/03 00:11:48;;;;;;;38.30;14.77;;;;;;;5.98;85.73;101965.47;4963142;28;20108;-82
2022/01/03 00:14:17;;;;;;;39.90;14.88;;;;;;;5.98;85.76;101953.13;4963944;28;20527;-83
2022/01/03 00:16:43;;;;;;;38.30;14.57;;;;;;;5.95;85.79;101955.09;4948901;28;20135;-83
2022/01/03 00:19:13;;;;;;;55.35;14.68;;;;;;;6.04;86.56;101959.03;4963557;28;20430;-83
2022/01/03 00:21:45;;;;;;;46.03;14.18;;;;;;;5.96;86.26;101930.41;4932127;29;20051;-83
2022/01/03 00:24:13;;;;;;;29.25;13.30;;;;;;;6.06;86.12;101942.22;4948764;28;20051;-83
2022/01/03 00:26:43;;;;;;;68.05;15.52;;;;;;;6.07;85.64;101920.22;4948395;29;20050;-83
2022/01/03 00:29:16;;;;;;;42.22;12.98;;;;;;;5.79;85.18;101903.06;4950346;28;20063;-83
2022/01/03 00:31:43;;;;;;;43.92;14.45;;;;;;;6.01;85.47;101951.28;4965920;28;20146;-84
2022/01/03 00:34:12;;;;;;;26.48;13.82;;;;;;;5.81;85.87;101899.50;4966137;28;20142;-83
2022/01/03 00:36:46;;;;;;;63.33;16.83;;;;;;;5.89;85.91;101921.06;4965677;28;20055;-83
2022/01/03 00:39:13;;;;;;;69.65;15.20;;;;;;;5.60;85.62;101861.84;4950705;28;20048;-83
2022/01/03 00:41:43;;;;;;;50.15;14.00;;;;;;;6.03;85.97;101942.38;4962516;28;20499;-83
2022/01/03 00:44:10;;;;;;;45.58;13.00;;;;;;;5.85;85.78;101911.59;4962974;28;20142;-83
2022/01/03 00:46:37;;;;;;;23.67;12.50;;;;;;;5.98;85.37;101932.06;4962455;28;20513;-82
2022/01/03 00:49:05;;;;;;;54.38;13.75;;;;;;;5.97;85.49;101916.28;4948490;28;20047;-82
2022/01/03 00:51:32;;;;;;;33.08;12.85;;;;;;;5.03;84.96;101769.78;4948211;28;20051;-83
2022/01/03 00:53:59;;;;;;;48.95;12.20;;;;;;;5.71;85.06;101878.88;4963265;28;20049;-82
2022/01/03 00:56:35;;;;;;;17.83;12.32;;;;;;;6.00;85.06;101918.81;4963047;28;20156;-82
2022/01/03 00:59:10;;;;;;;38.13;13.45;;;;;;;6.01;85.04;101922.28;4962236;28;20043;-83
2022/01/03 01:01:43;;;;;;;32.38;13.13;;;;;;;6.05;84.58;101879.88;4948206;28;20070;-84
2022/01/03 01:04:12;;;;;;;17.38;12.07;;;;;;;5.72;84.51;101856.84;4947660;28;20415;-84
2022/01/03 01:06:39;;;;;;;27.30;12.60;;;;;;;5.59;84.97;101825.91;4947923;28;20043;-83
2022/01/03 01:09:09;;;;;;;55.78;13.77;;;;;;;6.11;84.39;101908.56;4948274;28;20043;-81
2022/01/03 01:11:41;;;;;;;29.77;12.13;;;;;;;6.00;84.03;101884.53;4963001;28;20138;-81
2022/01/03 01:14:10;;;;;;;19.17;11.38;;;;;;;5.95;84.14;101908.47;4947252;28;20142;-82
2022/01/03 01:16:37;;;;;;;60.42;14.23;;;;;;;5.95;84.65;101899.72;4946934;28;20050;-82
2022/01/03 01:19:09;;;;;;;26.10;12.43;;;;;;;5.76;84.08;101865.47;4965631;28;20053;-83
2022/01/03 01:21:36;;;;;;;;;;;;;;;5.85;85.12;101904.56;4966853;28;20082;-83
2022/01/03 01:24:03;;;;;;;19.33;12.50;;;;;;;5.14;85.15;101783.25;4968987;28;19928;-83
2022/01/03 01:29:15;;;;;;;15.35;12.45;;;;;;;5.51;84.67;101832.41;4955049;28;20453;-84
2022/01/03 01:31:48;;;;;;;18.20;12.48;;;;;;;5.63;84.42;101844.13;4970038;28;20078;-83
2022/01/03 01:34:22;;;;;;;12.82;11.57;;;;;;;5.40;84.14;101820.69;4970122;28;20138;-82
2022/01/03 01:36:54;;;;;;;14.65;11.55;;;;;;;5.69;84.63;101875.44;4970180;28;20043;-82
2022/01/03 01:39:22;;;;;;;;;;;;;;;5.82;84.21;101901.19;4956256;28;20153;-83
2022/01/03 01:41:53;;;;;;;16.00;11.57;;;;;;;5.53;84.28;101859.53;4954648;28;20012;-83
2022/01/03 01:44:24;;;;;;;14.60;11.82;;;;;;;5.86;84.11;101892.22;4954019;29;20089;-82
2022/01/03 01:46:54;;;;;;;11.77;10.57;;;;;;;5.75;84.30;101890.97;4954327;28;20496;-82
2022/01/03 01:49:25;;;;;;;12.52;11.32;;;;;;;5.56;84.22;101842.72;4954365;28;20133;-81
2022/01/03 01:52:01;;;;;;;22.63;12.07;;;;;;;4.21;83.17;101612.25;4954816;28;20051;-83
2022/01/03 01:54:37;;;;;;;23.30;11.90;;;;;;;5.58;83.31;101840.84;4969588;28;20306;-83
2022/01/03 01:57:06;;;;;;;18.85;11.27;;;;;;;5.84;83.60;101902.00;4953779;29;20055;-83
2022/01/03 01:59:41;;;;;;;12.38;11.07;;;;;;;5.78;83.87;101906.63;4955116;28;20051;-83
2022/01/03 02:02:10;;;;;;;16.05;10.98;;;;;;;4.86;83.64;101768.78;4966147;28;20065;-83
2022/01/03 02:04:46;;;;;;;18.55;12.15;;;;;;;4.42;83.52;101697.19;4947740;29;20454;-83
2022/01/03 02:07:49;;;;;;;13.68;11.10;;;;;;;5.72;83.64;101891.09;4948458;28;20399;-84
2022/01/03 02:10:16;;;;;;;11.77;10.68;;;;;;;5.63;83.42;101877.50;4965605;28;20126;-82
2022/01/03 02:12:49;;;;;;;19.65;11.57;;;;;;;4.58;83.55;101719.19;4965398;28;20059;-82
2022/01/03 02:15:18;;;;;;;12.80;11.55;;;;;;;5.62;83.73;101903.00;4950909;28;20150;-84
2022/01/03 02:17:47;;;;;;;16.10;11.60;;;;;;;5.65;83.47;101923.09;4971487;28;20109;-81
2022/01/03 02:20:17;;;;;;;14.25;12.00;;;;;;;5.61;83.68;101924.16;4971844;28;20432;-83
2022/01/03 02:22:44;;;;;;;18.13;12.27;;;;;;;5.64;83.97;101924.88;4967855;28;20054;-82
2022/01/03 02:25:16;;;;;;;15.13;12.23;;;;;;;5.49;84.09;101880.81;4965163;28;20055;-83
2022/01/03 02:27:43;;;;;;;12.65;10.90;;;;;;;5.63;83.43;101882.78;4965420;28;20054;-82
2022/01/03 02:30:12;;;;;;;14.00;12.18;;;;;;;5.61;83.35;101889.91;4964927;28;20246;-83
2022/01/03 02:32:40;;;;;;;16.17;11.80;;;;;;;5.28;83.48;101857.19;4950050;28;20114;-83
2022/01/03 02:35:08;;;;;;;20.17;11.93;;;;;;;5.65;83.20;101907.28;4965646;28;20050;-81
2022/01/03 02:37:35;;;;;;;19.58;12.32;;;;;;;5.62;83.43;101889.84;4965040;28;20047;-83
2022/01/03 02:40:03;;;;;;;23.42;11.77;;;;;;;5.43;83.64;101846.84;4965151;28;20054;-83
2022/01/03 02:42:29;;;;;;;13.93;12.63;;;;;;;5.67;83.85;101861.47;4965472;28;20141;-83
2022/01/03 02:45:05;;;;;;;12.98;11.68;;;;;;;5.57;83.47;101823.34;4967766;28;20063;-83
2022/01/03 02:47:32;;;;;;;15.40;12.57;;;;;;;5.14;82.87;101741.13;4967986;28;20150;-83
2022/01/03 02:49:59;;;;;;;13.57;12.18;;;;;;;5.72;83.17;101854.22;4968764;28;20106;-81
2022/01/03 02:52:28;;;;;;;13.65;12.45;;;;;;;5.35;83.33;101791.91;4968907;28;20107;-82
2022/01/03 02:54:56;;;;;;;18.98;12.60;;;;;;;5.39;82.67;101805.78;4968178;28;20091;-82
2022/01/03 02:57:23;;;;;;;20.02;11.73;;;;;;;5.70;83.26;101852.56;4951264;28;20155;-84
2022/01/03 02:59:54;;;;;;;14.48;12.82;;;;;;;5.65;83.18;101847.53;4949790;28;20252;-84
2022/01/03 03:02:25;;;;;;;14.35;12.95;;;;;;;5.07;83.31;101752.88;4964293;28;20114;-83
2022/01/03 03:04:55;;;;;;;12.90;11.70;;;;;;;5.73;83.12;101855.94;4964361;28;20079;-84
2022/01/03 03:07:23;;;;;;;14.70;12.85;;;;;;;5.52;83.36;101847.28;4964508;28;20047;-85
2022/01/03 03:09:50;;;;;;;13.93;11.98;;;;;;;5.64;82.93;101872.19;4949728;28;20051;-84
2022/01/03 03:12:17;;;;;;;14.05;12.63;;;;;;;5.48;82.98;101839.59;4949936;28;20055;-84
2022/01/03 03:14:44;;;;;;;22.85;12.25;;;;;;;5.22;82.61;101807.47;4964742;28;20146;-82
2022/01/03 03:17:11;;;;;;;19.60;11.93;;;;;;;5.60;82.96;101859.22;4948834;29;20499;-84
2022/01/03 03:20:02;;;;;;;13.07;11.63;;;;;;;5.60;83.11;101891.69;4950425;28;20137;-82
2022/01/03 03:22:30;;;;;;;13.38;12.07;;;;;;;5.58;83.23;101893.53;4964987;28;20418;-82
2022/01/03 03:25:05;;;;;;;13.63;12.32;;;;;;;5.29;83.02;101836.97;4948815;29;20105;-82
2022/01/03 03:27:32;;;;;;;13.10;11.75;;;;;;;5.61;82.45;101866.19;4950226;28;20134;-83
2022/01/03 03:30:15;;;;;;;12.95;11.05;;;;;;;5.39;82.90;101837.38;4963044;28;20145;-84
2022/01/03 03:32:43;;;;;;;14.88;12.02;;;;;;;5.39;82.65;101825.09;4964891;28;20114;-84
2022/01/03 03:35:10;;;;;;;13.70;11.77;;;;;;;5.01;83.44;101755.81;4965037;28;20438;-83
2022/01/03 03:40:25;;;;;;;16.38;11.95;;;;;;;5.52;82.99;101826.19;4949179;28;20451;-82
2022/01/03 03:42:52;;;;;;;28.08;11.55;;;;;;;5.56;82.88;101817.22;4964370;28;20505;-83
2022/01/03 03:45:20;;;;;;;21.20;12.02;;;;;;;5.59;82.43;101837.31;4949471;28;20051;-83
2022/01/03 03:47:46;;;;;;;13.40;12.00;;;;;;;5.36;82.86;101825.22;4948015;29;20388;-83
2022/01/03 03:50:13;;;;;;;12.52;11.35;;;;;;;5.28;83.69;101815.06;4949637;28;20059;-83
2022/01/03 03:52:40;;;;;;;14.82;11.65;;;;;;;5.27;83.45;101829.16;4964248;28;20055;-83
2022/01/03 03:55:07;;;;;;;13.30;12.10;;;;;;;4.74;82.82;101731.66;4949571;28;20098;-83
2022/01/03 03:57:34;;;;;;;14.32;12.25;;;;;;;4.95;83.06;101761.34;4964358;28;20146;-83
2022/01/03 04:00:01;;;;;;;13.20;11.90;;;;;;;5.42;82.53;101826.72;4949921;28;20063;-83
2022/01/03 04:02:27;;;;;;;12.68;11.48;;;;;;;5.38;82.53;101797.03;4964153;28;20375;-83
2022/01/03 04:04:54;;;;;;;12.55;11.30;;;;;;;5.52;82.15;101796.38;4949372;29;20057;-83
2022/01/03 04:07:21;;;;;;;13.88;12.40;;;;;;;5.14;82.52;101751.66;4963987;28;20122;-83
2022/01/03 04:09:47;;;;;;;12.68;11.38;;;;;;;5.31;83.37;101796.47;4948030;29;20067;-84
2022/01/03 04:12:14;;;;;;;19.10;12.73;;;;;;;4.87;83.11;101733.63;4948093;29;20565;-83
2022/01/03 04:14:40;;;;;;;14.82;10.70;;;;;;;5.59;82.41;101816.22;4949283;29;20061;-83
2022/01/03 04:17:09;;;;;;;15.60;10.80;;;;;;;4.71;82.66;101690.56;4948159;29;20050;-84
2022/01/03 04:19:36;;;;;;;13.95;11.68;;;;;;;5.49;82.31;101830.78;4948049;29;20503;-82
2022/01/03 04:22:02;;;;;;;35.08;13.60;;;;;;;5.44;82.12;101822.25;4947929;29;20522;-83
2022/01/03 04:24:29;;;;;;;36.05;13.20;;;;;;;5.33;82.38;101847.28;4949130;28;20090;-84
2022/01/03 04:26:56;;;;;;;26.38;12.80;;;;;;;5.23;82.69;101826.75;4949302;28;20124;-83
2022/01/03 04:29:23;;;;;;;17.33;12.85;;;;;;;5.20;82.56;101767.19;4948449;29;20419;-83
2022/01/03 04:31:50;;;;;;;14.40;12.57;;;;;;;5.29;83.17;101787.81;4949255;29;20050;-82
2022/01/03 04:34:16;;;;;;;12.93;11.65;;;;;;;5.31;83.44;101793.00;4949088;28;20574;-83
2022/01/03 04:36:43;;;;;;;15.40;12.52;;;;;;;4.55;83.36;101627.28;4948096;29;20146;-83
2022/01/03 04:39:10;;;;;;;19.65;13.90;;;;;;;5.32;83.47;101771.84;4947630;29;20062;-83
2022/01/03 04:41:36;;;;;;;20.98;13.50;;;;;;;5.26;82.86;101758.13;4947968;29;20480;-83
2022/01/03 04:44:05;;;;;;;12.60;11.40;;;;;;;5.22;83.08;101731.13;4948706;28;20047;-84
2022/01/03 04:46:36;;;;;;;13.88;12.57;;;;;;;5.02;82.93;101712.78;4947638;29;20094;-84
2022/01/03 04:49:05;;;;;;;12.48;11.18;;;;;;;5.48;82.59;101786.91;4947714;29;20164;-84
2022/01/03 04:51:35;;;;;;;28.95;12.68;;;;;;;5.29;82.64;101743.06;4948740;28;20055;-84
2022/01/03 04:54:03;;;;;;;26.85;11.60;;;;;;;5.44;82.44;101748.50;4953018;28;20054;-84
2022/01/03 04:56:30;;;;;;;12.95;11.48;;;;;;;5.07;82.12;101671.28;4952685;29;20051;-84
2022/01/03 04:58:57;;;;;;;13.32;12.02;;;;;;;5.41;82.65;101754.75;4953196;29;20122;-83
2022/01/03 05:01:23;;;;;;;19.95;11.55;;;;;;;5.11;82.11;101694.75;4954871;29;20519;-83
2022/01/03 05:03:52;;;;;;;23.38;11.65;;;;;;;4.63;82.48;101621.66;4954004;29;20176;-84
2022/01/03 05:06:19;;;;;;;20.90;11.82;;;;;;;5.24;82.28;101715.22;4956616;28;20082;-83
2022/01/03 05:08:46;;;;;;;18.17;12.13;;;;;;;4.67;82.30;101617.97;4971932;28;20051;-84
2022/01/03 05:11:13;;;;;;;14.60;11.75;;;;;;;5.14;83.07;101720.06;4972709;28;20051;-84
2022/01/03 05:13:41;;;;;;;20.90;12.10;;;;;;;4.97;82.73;101672.66;4957427;28;20055;-83
2022/01/03 05:16:07;;;;;;;21.63;12.05;;;;;;;5.18;82.40;101697.94;4953461;28;20043;-83
2022/01/03 05:18:34;;;;;;;26.92;11.82;;;;;;;5.32;82.55;101744.69;4967244;28;20055;-82
2022/01/03 05:21:01;;;;;;;16.25;12.57;;;;;;;5.29;82.64;101750.94;4951142;29;20204;-82
2022/01/03 05:23:28;;;;;;;34.05;11.20;;;;;;;4.87;82.62;101693.31;4967593;28;20134;-84
2022/01/03 05:25:54;;;;;;;12.00;10.80;;;;;;;5.23;82.95;101739.84;4952324;28;20055;-83
2022/01/03 05:28:21;;;;;;;14.85;10.98;;;;;;;5.21;82.45;101763.63;4952321;28;20061;-84
2022/01/03 05:30:48;;;;;;;15.38;11.48;;;;;;;5.23;82.62;101777.56;4952009;28;20051;-84
2022/01/03 05:33:15;;;;;;;11.75;10.55;;;;;;;5.24;82.61;101765.25;4966772;28;20051;-84
2022/01/03 05:35:41;;;;;;;12.88;10.63;;;;;;;5.12;82.09;101758.78;4967268;28;20737;-84
2022/01/03 05:38:08;;;;;;;12.27;11.05;;;;;;;4.79;82.02;101698.94;4956905;29;20082;-84
2022/01/03 05:40:34;;;;;;;21.02;11.57;;;;;;;5.05;82.20;101765.25;4976529;28;20507;-83
2022/01/03 05:43:01;;;;;;;12.02;10.85;;;;;;;4.86;82.41;101739.81;4970922;28;20446;-83
2022/01/03 05:45:27;;;;;;;24.35;11.85;;;;;;;5.15;82.58;101769.19;4952082;28;20047;-84
2022/01/03 05:47:55;;;;;;;11.95;10.77;;;;;;;4.92;82.66;101726.38;4949788;29;20161;-84
2022/01/03 05:50:22;;;;;;;24.00;11.15;;;;;;;5.04;82.71;101755.66;4950848;28;20107;-84
2022/01/03 05:52:49;;;;;;;36.67;12.68;;;;;;;4.96;83.17;101752.56;4949991;29;20051;-84
2022/01/03 05:55:16;;;;;;;40.47;12.70;;;;;;;5.08;81.99;101802.84;4949389;29;20247;-84
2022/01/03 05:57:42;;;;;;;25.45;11.68;;;;;;;4.75;81.83;101760.50;4950865;28;20415;-83
2022/01/03 06:00:13;;;;;;;32.38;11.95;;;;;;;5.03;82.48;101814.50;4949294;29;20051;-83
2022/01/03 06:02:42;;;;;;;42.63;12.00;;;;;;;4.79;82.47;101783.13;4964681;28;20406;-84
2022/01/03 06:05:19;;;;;;;41.90;12.85;;;;;;;4.64;82.72;101753.13;4945701;29;20134;-84
2022/01/03 06:07:46;;;;;;;35.20;11.52;;;;;;;4.75;82.46;101792.06;4946440;29;20139;-83
2022/01/03 06:10:17;;;;;;;36.22;11.45;;;;;;;4.83;82.93;101804.88;4944486;29;20053;-84
2022/01/03 06:12:47;;;;;;;15.77;11.02;;;;;;;4.68;83.04;101753.81;4965096;28;20070;-85
2022/01/03 06:15:15;;;;;;;13.27;10.88;;;;;;;4.17;83.27;101660.63;4950397;28;20111;-84
2022/01/03 06:17:45;;;;;;;22.02;12.18;;;;;;;4.25;83.46;101676.91;4965058;28;20578;-83
2022/01/03 06:20:12;;;;;;;14.40;10.75;;;;;;;4.82;83.00;101767.19;4965377;28;20114;-83
2022/01/03 06:22:40;;;;;;;12.75;11.38;;;;;;;4.86;83.32;101771.41;4964708;28;20055;-84
2022/01/03 06:25:09;;;;;;;15.77;10.80;;;;;;;4.12;82.94;101628.44;4964907;28;20565;-85
2022/01/03 06:27:38;;;;;;;14.65;11.60;;;;;;;4.14;83.15;101637.09;4949156;29;20165;-84
2022/01/03 06:30:06;;;;;;;21.00;10.93;;;;;;;4.56;83.05;101728.09;4965076;28;20059;-84
2022/01/03 06:32:33;;;;;;;11.48;10.23;;;;;;;4.05;82.52;101644.50;4950407;28;20082;-84
2022/01/03 06:35:00;;;;;;;10.70;9.60;;;;;;;4.64;82.29;101711.03;4949443;28;20051;-84
2022/01/03 06:37:27;;;;;;;11.30;10.07;;;;;;;4.87;81.94;101748.56;4954844;28;20155;-84
2022/01/03 06:39:53;;;;;;;16.50;10.85;;;;;;;5.02;82.29;101757.50;4967899;28;20142;-84
2022/01/03 06:42:20;;;;;;;11.02;10.05;;;;;;;4.36;81.85;101652.75;4955096;28;20053;-85
2022/01/03 06:44:48;;;;;;;11.18;9.80;;;;;;;4.35;81.41;101680.81;4947536;29;20080;-84
2022/01/03 06:47:17;;;;;;;24.20;11.40;;;;;;;4.67;82.24;101728.44;4947874;29;20507;-85
2022/01/03 06:49:44;;;;;;;12.15;11.05;;;;;;;4.97;82.62;101777.94;4965576;28;20090;-84
2022/01/03 06:52:11;;;;;;;12.38;11.07;;;;;;;4.45;82.94;101689.13;4967877;28;20086;-83
2022/01/03 06:54:38;;;;;;;11.80;10.70;;;;;;;4.46;82.96;101691.69;4964557;28;20047;-84
2022/01/03 06:57:05;;;;;;;12.60;11.38;;;;;;;4.95;82.96;101787.69;4949826;28;20418;-84
2022/01/03 06:59:31;;;;;;;11.55;10.43;;;;;;;4.35;82.79;101678.19;4965315;28;20087;-84
2022/01/03 07:02:00;;;;;;;13.07;11.88;;;;;;;4.65;83.21;101709.25;4964788;28;20051;-85
2022/01/03 07:04:27;;;;;;;12.95;10.80;;;;;;;4.99;82.80;101762.94;4949777;28;20422;-85
2022/01/03 07:06:57;;;;;;;13.20;11.25;;;;;;;5.02;82.46;101747.00;4947191;29;20090;-85
2022/01/03 07:09:23;;;;;;;12.98;11.68;;;;;;;5.10;82.55;101756.25;4948847;28;20044;-85
2022/01/03 07:11:50;;;;;;;15.25;12.18;;;;;;;5.08;82.91;101758.09;4964913;28;20218;-85
2022/01/03 07:19:36;;;;;;;15.27;11.75;;;;;;;5.02;82.77;101757.50;4950516;28;20226;-85
2022/01/03 07:22:04;;;;;;;39.53;12.43;;;;;;;5.19;83.27;101773.34;4966532;28;20049;-85
2022/01/03 07:24:32;;;;;;;33.63;12.38;;;;;;;5.06;82.98;101751.19;4968357;28;20074;-85
2022/01/03 07:27:04;;;;;;;16.85;12.10;;;;;;;5.14;82.93;101767.47;4953024;28;20056;-85
2022/01/03 07:29:31;;;;;;;14.65;11.88;;;;;;;4.62;82.74;101683.09;4968196;28;20057;-85
2022/01/03 07:31:59;;;;;;;30.58;12.85;;;;;;;5.04;83.14;101772.31;4966423;28;20059;-84
2022/01/03 07:34:26;;;;;;;16.73;11.88;;;;;;;4.56;83.26;101678.13;4964452;28;20110;-84
2022/01/03 07:36:54;;;;;;;26.05;13.43;;;;;;;4.54;82.52;101665.06;4948718;29;20051;-85
2022/01/03 07:39:21;;;;;;;48.60;15.18;;;;;;;4.91;83.26;101750.13;4964587;28;20101;-85
2022/01/03 07:41:48;;;;;;;34.38;13.73;;;;;;;4.93;83.45;101750.94;4963995;28;20472;-84
2022/01/03 07:44:15;;;;;;;26.75;13.15;;;;;;;4.78;83.19;101720.06;4963252;28;20050;-84
2022/01/03 08:05:13;;;;;;;32.30;13.77;;;;;;;4.53;81.83;101586.22;5154661;27;20385;-85
2022/01/03 08:07:40;;;;;;;39.92;13.68;;;;;;;5.31;82.74;101745.59;5149177;27;20096;-85
2022/01/03 08:10:09;;;;;;;48.25;13.40;;;;;;;4.62;83.03;101631.34;5134360;27;20563;-82
2022/01/03 08:12:37;;;;;;;29.13;11.95;;;;;;;4.14;81.31;101559.09;5125122;28;20035;-84
2022/01/03 08:15:08;;;;;;;73.53;14.20;;;;;;;4.40;81.74;101621.00;5125021;27;20054;-84
2022/01/03 08:17:35;;;;;;;47.97;12.48;;;;;;;5.02;82.63;101736.47;5123885;28;20076;-84
2022/01/03 08:20:03;;;;;;;40.45;13.32;;;;;;;4.24;82.79;101622.63;5124817;27;20043;-84
2022/01/03 08:22:30;;;;;;;15.77;12.88;;;;;;;4.09;82.57;101625.94;5123838;28;20514;-84
2022/01/03 08:24:57;;;;;;;14.18;12.73;;;;;;;4.78;83.31;101722.69;5123823;28;20051;-86
2022/01/03 08:27:23;;;;;;;13.25;11.85;;;;;;;4.79;83.58;101704.19;5125026;27;20051;-85
2022/01/03 08:29:50;;;;;;;14.13;11.20;;;;;;;5.18;83.74;101761.13;5124301;27;20092;-84
2022/01/03 08:32:17;;;;;;;23.38;12.73;;;;;;;5.11;83.66;101759.72;5124998;27;20078;-84
2022/01/03 08:34:43;;;;;;;18.05;11.35;;;;;;;5.19;83.44;101770.72;5125013;27;20069;-84
2022/01/03 08:37:10;;;;;;;33.83;13.40;;;;;;;5.07;83.05;101731.81;5124670;27;20112;-84
2022/01/03 08:39:37;;;;;;;28.85;13.23;;;;;;;4.79;82.30;101650.75;5123754;28;20071;-83
2022/01/03 08:42:04;;;;;;;19.13;14.60;;;;;;;4.82;82.09;101645.31;5123991;27;20173;-82
2022/01/03 08:44:30;;;;;;;17.88;12.82;;;;;;;5.14;82.39;101694.59;5124466;27;20086;-84
2022/01/03 08:46:57;;;;;;;27.67;12.70;;;;;;;5.29;82.47;101750.94;5124815;27;20179;-84
2022/01/03 08:49:24;;;;;;;17.60;13.55;;;;;;;5.22;83.07;101757.44;5124768;27;20513;-83
2022/01/03 08:51:51;;;;;;;16.50;13.30;;;;;;;5.01;83.00;101742.66;5124767;27;20043;-84
2022/01/03 08:54:17;;;;;;;14.52;13.13;;;;;;;5.12;83.34;101771.94;5122997;27;20513;-85
2022/01/03 08:56:44;;;;;;;15.32;12.55;;;;;;;4.88;83.32;101730.09;5124518;27;20387;-85
2022/01/03 08:59:11;;;;;;;20.98;11.70;;;;;;;5.21;83.03;101794.34;5122984;27;20395;-86
2022/01/03 09:01:38;;;;;;;20.70;10.95;;;;;;;5.28;82.51;101807.16;5124735;27;20509;-85
2022/01/03 09:04:04;;;;;;;14.18;12.32;;;;;;;5.28;82.52;101790.50;5121572;27;20092;-82
2022/01/03 09:06:33;;;;;;;27.83;13.63;;;;;;;4.82;82.67;101714.56;5109581;28;20112;-83
2022/01/03 09:09:05;;;;;;;13.73;12.30;;;;;;;5.41;81.62;101798.66;5110645;28;20040;-86
2022/01/03 09:11:37;;;;;;;19.13;11.63;;;;;;;4.91;82.01;101721.19;5110783;28;20052;-85
2022/01/03 09:14:04;;;;;;;19.35;12.52;;;;;;;5.04;81.92;101769.69;5110774;28;20486;-86
2022/01/03 09:16:30;;;;;;;11.23;9.48;;;;;;;5.10;82.46;101819.41;5109768;28;20051;-84
2022/01/03 09:18:57;;;;;;;11.07;9.98;;;;;;;4.86;81.60;101792.44;5110673;28;20047;-84
2022/01/03 09:21:24;;;;;;;19.45;11.02;;;;;;;5.24;82.00;101842.47;5109349;28;20126;-85
2022/01/03 09:29:27;;;;;;;19.42;11.13;;;;;;;5.07;82.57;101802.91;5110429;28;20048;-84
2022/01/03 09:31:54;;;;;;;41.47;12.65;;;;;;;4.98;82.57;101782.28;5109129;28;20075;-84
2022/01/03 09:34:20;;;;;;;19.38;11.55;;;;;;;4.69;82.64;101732.72;5110146;28;20050;-83
2022/01/03 09:36:47;;;;;;;15.88;11.40;;;;;;;4.91;82.70;101777.31;5108945;28;20158;-83
2022/01/03 09:39:16;;;;;;;14.48;11.98;;;;;;;4.97;83.00;101806.88;5108948;28;20091;-84
2022/01/03 09:42:04;;;;;;;33.22;11.43;;;;;;;5.08;82.69;101815.16;5109966;28;20150;-83
2022/01/03 09:44:32;;;;;;;18.80;11.25;;;;;;;5.00;82.61;101790.94;5109358;28;20058;-83
2022/01/03 09:47:02;;;;;;;20.88;11.40;;;;;;;4.86;83.26;101770.56;5108935;28;20051;-84
2022/01/03 09:49:33;;;;;;;31.15;10.82;;;;;;;5.13;82.47;101823.69;5108946;28;20043;-84
2022/01/03 09:52:02;;;;;;;28.08;10.55;;;;;;;4.46;81.95;101712.72;5111819;28;20052;-82
2022/01/03 09:54:29;;;;;;;13.82;11.93;;;;;;;5.12;82.68;101827.22;5109921;28;20130;-85
2022/01/03 09:57:00;;;;;;;19.40;12.18;;;;;;;4.99;82.99;101826.09;5112541;28;20121;-83
2022/01/03 09:59:28;;;;;;;18.55;12.20;;;;;;;5.02;82.76;101825.94;5120070;28;20079;-84
2022/01/03 10:01:58;;;;;;;14.05;11.60;;;;;;;5.16;83.15;101844.59;5121512;28;20081;-84
2022/01/03 10:04:25;;;;;;;13.90;11.48;;;;;;;4.87;83.00;101783.63;5126273;28;20058;-84
2022/01/03 10:06:52;;;;;;;15.27;12.73;;;;;;;5.27;83.10;101842.31;5111104;28;20433;-82
2022/01/03 10:09:20;;;;;;;14.38;11.38;;;;;;;5.20;83.06;101819.84;5109085;28;20040;-83
2022/01/03 10:11:50;;;;;;;13.30;11.88;;;;;;;4.88;83.01;101745.88;5109325;28;20053;-82
2022/01/03 10:14:17;;;;;;;15.85;11.90;;;;;;;5.19;83.10;101810.22;5110139;28;20043;-83
2022/01/03 10:16:45;;;;;;;13.38;12.00;;;;;;;5.33;83.10;101820.09;5109092;28;20047;-83
2022/01/03 10:19:23;;;;;;;17.38;13.65;;;;;;;5.12;83.34;101775.44;5110259;28;20418;-83
2022/01/03 10:21:53;;;;;;;14.65;12.50;;;;;;;5.07;82.61;101764.28;5111206;28;20054;-84
2022/01/03 10:24:33;;;;;;;20.73;13.35;;;;;;;5.40;82.75;101821.53;5113148;28;20548;-83
2022/01/03 10:26:59;;;;;;;16.75;13.75;;;;;;;5.40;83.66;101799.59;5113320;28;20104;-83
2022/01/03 10:29:28;;;;;;;13.38;12.07;;;;;;;5.23;83.50;101761.75;5113304;28;20097;-84
2022/01/03 10:31:58;;;;;;;13.88;12.48;;;;;;;4.97;82.17;101720.03;5109763;28;20437;-83
2022/01/03 10:34:25;;;;;;;14.25;12.85;;;;;;;5.56;81.88;101838.31;5107947;28;20561;-84
2022/01/03 10:36:55;;;;;;;14.23;12.73;;;;;;;5.44;82.09;101816.97;5108234;28;20048;-83
2022/01/03 10:39:25;;;;;;;14.65;13.15;;;;;;;5.65;81.69;101852.78;5107385;28;20503;-84
2022/01/03 10:42:18;;;;;;;15.93;13.60;;;;;;;5.64;81.57;101843.19;5107727;28;20163;-85
2022/01/03 10:44:45;;;;;;;15.77;14.07;;;;;;;5.50;81.85;101830.69;5107233;28;20082;-83
2022/01/03 10:47:29;;;;;;;15.07;13.52;;;;;;;5.65;82.51;101841.41;5107137;28;20134;-85
2022/01/03 10:49:56;;;;;;;21.08;13.98;;;;;;;5.61;82.22;101832.81;5107151;28;20449;-79
2022/01/03 10:52:31;;;;;;;16.55;13.30;;;;;;;5.67;81.68;101818.47;5107014;28;20528;-85
2022/01/03 10:55:18;;;;;;;15.52;13.77;;;;;;;5.72;81.86;101821.75;5108516;28;20047;-82
2022/01/03 10:57:48;;;;;;;15.30;13.65;;;;;;;5.67;82.26;101824.59;5107136;28;20486;-83
2022/01/03 11:00:22;;;;;;;15.85;14.25;;;;;;;5.30;82.30;101750.00;5107128;28;20506;-84
2022/01/03 11:03:19;;;;;;;17.65;14.63;;;;;;;5.67;82.93;101819.31;5104542;28;20050;-83
2022/01/03 11:05:55;;;;;;;16.13;14.40;;;;;;;5.86;82.15;101798.19;5104560;28;20403;-84
2022/01/03 11:11:12;;;;;;;19.80;15.77;;;;;;;5.90;81.29;101783.09;5087164;28;20571;-83
2022/01/03 11:13:41;;;;;;;17.33;15.52;;;;;;;5.86;81.92;101792.09;5102986;28;20044;-83
2022/01/03 11:16:10;;;;;;;15.90;14.30;;;;;;;5.85;82.50;101808.81;5086711;28;20087;-82
2022/01/03 11:18:45;;;;;;;16.52;14.82;;;;;;;5.90;82.66;101793.63;5086534;28;20151;-83
2022/01/03 11:21:21;;;;;;;19.00;16.15;;;;;;;5.91;81.78;101776.88;5086544;28;20105;-84
2022/01/03 11:24:00;;;;;;;23.77;17.50;;;;;;;5.46;81.58;101700.09;5087232;28;20130;-82
2022/01/03 11:26:35;;;;;;;19.83;16.73;;;;;;;5.87;81.98;101762.16;5106059;28;20122;-83
2022/01/03 11:29:30;;;;;;;20.17;18.02;;;;;;;5.73;82.21;101742.63;5106828;28;20109;-84
2022/01/03 11:31:59;;;;;;;18.83;16.60;;;;;;;5.92;82.17;101765.41;5106405;28;20501;-83
2022/01/03 11:34:26;;;;;;;19.45;17.35;;;;;;;6.02;82.31;101771.97;5106668;28;20071;-82
2022/01/03 11:37:07;;;;;;;21.27;17.77;;;;;;;6.04;82.46;101764.81;5106307;28;20055;-83
2022/01/03 11:39:36;;;;;;;20.73;17.75;;;;;;;5.87;82.38;101704.16;5105918;28;20058;-83
2022/01/03 11:42:03;;;;;;;22.65;18.13;;;;;;;5.61;81.67;101634.34;5106230;28;20081;-84
2022/01/03 11:44:31;;;;;;;22.88;18.83;;;;;;;6.10;81.88;101721.47;5106481;28;20138;-84
2022/01/03 11:46:59;;;;;;;21.48;17.95;;;;;;;5.82;81.74;101679.84;5107529;28;20043;-83
2022/01/03 11:49:26;;;;;;;22.95;19.00;;;;;;;5.75;81.67;101663.47;5103649;28;20067;-83
2022/01/03 11:51:54;;;;;;;28.48;20.83;;;;;;;5.82;81.41;101674.56;5103490;28;20135;-82
2022/01/03 11:54:22;;;;;;;24.92;19.80;;;;;;;5.21;81.76;101574.06;5103108;28;20142;-85
2022/01/03 11:57:15;;;;;;;23.52;20.35;;;;;;;6.18;82.09;101737.72;5104545;28;20043;-84
2022/01/03 12:05:50;;;;;;;24.30;19.73;;;;;;;5.67;82.06;101621.72;5107322;28;19967;-83
2022/01/03 12:08:39;;;;;;;22.33;18.58;;;;;;;6.04;82.32;101656.72;5106027;28;20055;-84
2022/01/03 12:11:27;;;;;;;23.17;20.67;;;;;;;6.17;82.05;101660.41;5085717;28;20147;-82